sensor_id;sensor_type;location;lat;lon;timestamp;pressure;altitude;pressure_sealevel;temperature;humidity
49315;BME280;36672;50.710;12.498;2023-03-03T00:01:34;98989.00;;;-0.21;80.03
49315;BME280;36672;50.710;12.498;2023-03-03T00:03:59;98990.81;;;-0.21;80.14
49315;BME280;36672;50.710;12.498;2023-03-03T00:06:25;98988.03;;;-0.20;80.14
49315;BME280;36672;50.710;12.498;2023-03-03T00:08:51;98980.91;;;-0.19;80.61
49315;BME280;36672;50.710;12.498;2023-03-03T00:11:16;98982.59;;;-0.18;80.28
49315;BME280;36672;50.710;12.498;2023-03-03T00:13:48;98996.47;;;-0.14;80.99
49315;BME280;36672;50.710;12.498;2023-03-03T00:16:16;98985.63;;;-0.11;80.75
49315;BME280;36672;50.710;12.498;2023-03-03T00:18:43;98986.47;;;-0.11;80.96
49315;BME280;36672;50.710;12.498;2023-03-03T00:21:44;98986.59;;;-0.12;80.82
49315;BME280;36672;50.710;12.498;2023-03-03T00:24:46;98983.06;;;-0.13;81.05
49315;BME280;36672;50.710;12.498;2023-03-03T00:26:47;98979.94;;;-0.18;81.22
49315;BME280;36672;50.710;12.498;2023-03-03T00:29:29;98980.91;;;-0.19;80.94
49315;BME280;36672;50.710;12.498;2023-03-03T00:32:41;98985.97;;;-0.16;81.58
49315;BME280;36672;50.710;12.498;2023-03-03T00:34:41;98987.06;;;-0.19;81.35
49315;BME280;36672;50.710;12.498;2023-03-03T00:37:18;98986.34;;;-0.21;81.49
49315;BME280;36672;50.710;12.498;2023-03-03T00:39:44;98981.03;;;-0.21;82.03
49315;BME280;36672;50.710;12.498;2023-03-03T00:42:12;98989.13;;;-0.22;81.92
49315;BME280;36672;50.710;12.498;2023-03-03T00:44:47;99000.47;;;-0.20;82.18
49315;BME280;36672;50.710;12.498;2023-03-03T00:47:23;98992.50;;;-0.20;82.02
49315;BME280;36672;50.710;12.498;2023-03-03T00:49:50;98999.59;;;-0.21;82.18
49315;BME280;36672;50.710;12.498;2023-03-03T00:52:16;98997.91;;;-0.22;82.14
49315;BME280;36672;50.710;12.498;2023-03-03T00:54:42;98999.59;;;-0.21;82.31
49315;BME280;36672;50.710;12.498;2023-03-03T00:57:08;98998.91;;;-0.23;81.96
49315;BME280;36672;50.710;12.498;2023-03-03T00:59:33;98994.31;;;-0.21;82.70
49315;BME280;36672;50.710;12.498;2023-03-03T01:01:58;99002.25;;;-0.21;82.59
49315;BME280;36672;50.710;12.498;2023-03-03T01:04:23;98998.66;;;-0.20;82.66
49315;BME280;36672;50.710;12.498;2023-03-03T01:06:48;98991.50;;;-0.19;82.61
49315;BME280;36672;50.710;12.498;2023-03-03T01:09:14;98991.03;;;-0.24;82.28
49315;BME280;36672;50.710;12.498;2023-03-03T01:11:39;98988.00;;;-0.31;82.92
49315;BME280;36672;50.710;12.498;2023-03-03T01:14:05;98988.00;;;-0.31;82.81
49315;BME280;36672;50.710;12.498;2023-03-03T01:16:30;98988.13;;;-0.32;82.77
49315;BME280;36672;50.710;12.498;2023-03-03T01:18:55;98981.97;;;-0.33;82.72
49315;BME280;36672;50.710;12.498;2023-03-03T01:21:20;98986.31;;;-0.32;83.20
49315;BME280;36672;50.710;12.498;2023-03-03T01:23:45;98981.88;;;-0.31;83.15
49315;BME280;36672;50.710;12.498;2023-03-03T01:26:11;98986.81;;;-0.27;83.15
49315;BME280;36672;50.710;12.498;2023-03-03T01:28:36;98982.22;;;-0.25;83.26
49315;BME280;36672;50.710;12.498;2023-03-03T01:31:02;98984.75;;;-0.23;83.29
49315;BME280;36672;50.710;12.498;2023-03-03T01:33:28;98976.78;;;-0.23;83.49
49315;BME280;36672;50.710;12.498;2023-03-03T01:35:53;98976.19;;;-0.27;83.03
49315;BME280;36672;50.710;12.498;2023-03-03T01:38:18;98965.31;;;-0.35;83.10
49315;BME280;36672;50.710;12.498;2023-03-03T01:40:48;98972.69;;;-0.39;82.91
49315;BME280;36672;50.710;12.498;2023-03-03T01:43:15;98975.22;;;-0.37;83.30
49315;BME280;36672;50.710;12.498;2023-03-03T01:46:18;98982.22;;;-0.36;83.71
49315;BME280;36672;50.710;12.498;2023-03-03T01:48:30;98982.47;;;-0.39;83.53
49315;BME280;36672;50.710;12.498;2023-03-03T01:53:42;98996.69;;;-0.40;83.75
49315;BME280;36672;50.710;12.498;2023-03-03T01:56:08;98992.09;;;-0.38;83.99
49315;BME280;36672;50.710;12.498;2023-03-03T01:58:35;98992.09;;;-0.38;84.25
49315;BME280;36672;50.710;12.498;2023-03-03T02:01:05;98992.00;;;-0.37;84.01
49315;BME280;36672;50.710;12.498;2023-03-03T02:03:31;98994.53;;;-0.35;84.10
49315;BME280;36672;50.710;12.498;2023-03-03T02:05:58;98986.56;;;-0.35;84.04
49315;BME280;36672;50.710;12.498;2023-03-03T02:08:27;98987.28;;;-0.33;84.16
49315;BME280;36672;50.710;12.498;2023-03-03T02:10:55;98987.28;;;-0.33;84.11
49315;BME280;36672;50.710;12.498;2023-03-03T02:13:21;98994.41;;;-0.34;83.84
49315;BME280;36672;50.710;12.498;2023-03-03T02:15:47;98996.56;;;-0.39;84.19
49315;BME280;36672;50.710;12.498;2023-03-03T02:18:13;98995.97;;;-0.42;83.92
49315;BME280;36672;50.710;12.498;2023-03-03T02:26:21;98986.78;;;-0.50;84.30
49315;BME280;36672;50.710;12.498;2023-03-03T02:28:46;98984.13;;;-0.50;84.45
49315;BME280;36672;50.710;12.498;2023-03-03T02:31:13;98967.22;;;-0.48;84.43
49315;BME280;36672;50.710;12.498;2023-03-03T02:33:43;98982.31;;;-0.49;84.38
49315;BME280;36672;50.710;12.498;2023-03-03T02:36:12;98971.72;;;-0.49;84.38
49315;BME280;36672;50.710;12.498;2023-03-03T02:43:51;98959.13;;;-0.58;84.49
49315;BME280;36672;50.710;12.498;2023-03-03T02:46:18;98969.16;;;-0.62;84.32
49315;BME280;36672;50.710;12.498;2023-03-03T02:48:43;98969.03;;;-0.60;84.86
49315;BME280;36672;50.710;12.498;2023-03-03T02:51:08;98952.97;;;-0.59;84.80
49315;BME280;36672;50.710;12.498;2023-03-03T02:53:33;98955.63;;;-0.59;85.00
49315;BME280;36672;50.710;12.498;2023-03-03T02:55:59;98967.81;;;-0.56;84.56
49315;BME280;36672;50.710;12.498;2023-03-03T02:58:24;98973.38;;;-0.59;84.33
49315;BME280;36672;50.710;12.498;2023-03-03T03:00:49;98971.69;;;-0.60;84.81
49315;BME280;36672;50.710;12.498;2023-03-03T03:03:14;98974.22;;;-0.59;84.64
49315;BME280;36672;50.710;12.498;2023-03-03T03:05:40;98976.66;;;-0.56;84.73
49315;BME280;36672;50.710;12.498;2023-03-03T03:08:05;98976.66;;;-0.56;85.09
49315;BME280;36672;50.710;12.498;2023-03-03T03:10:30;98968.91;;;-0.59;84.51
49315;BME280;36672;50.710;12.498;2023-03-03T03:12:55;98975.03;;;-0.58;84.57
49315;BME280;36672;50.710;12.498;2023-03-03T03:15:21;98976.88;;;-0.59;84.72
49315;BME280;36672;50.710;12.498;2023-03-03T03:17:46;98976.88;;;-0.59;84.98
49315;BME280;36672;50.710;12.498;2023-03-03T03:20:11;98978.44;;;-0.56;84.92
49315;BME280;36672;50.710;12.498;2023-03-03T03:22:37;98984.50;;;-0.54;84.78
49315;BME280;36672;50.710;12.498;2023-03-03T03:25:02;98984.63;;;-0.56;84.60
49315;BME280;36672;50.710;12.498;2023-03-03T03:27:27;98979.53;;;-0.59;84.31
49315;BME280;36672;50.710;12.498;2023-03-03T03:29:52;98975.53;;;-0.64;84.82
49315;BME280;36672;50.710;12.498;2023-03-03T03:32:18;98979.28;;;-0.67;84.76
49315;BME280;36672;50.710;12.498;2023-03-03T03:34:43;98977.91;;;-0.73;84.33
49315;BME280;36672;50.710;12.498;2023-03-03T03:37:08;98987.91;;;-0.76;84.54
49315;BME280;36672;50.710;12.498;2023-03-03T03:39:34;98986.22;;;-0.77;84.71
49315;BME280;36672;50.710;12.498;2023-03-03T03:41:59;98985.63;;;-0.81;84.96
49315;BME280;36672;50.710;12.498;2023-03-03T03:44:24;98991.91;;;-0.82;85.20
49315;BME280;36672;50.710;12.498;2023-03-03T03:46:49;98989.25;;;-0.82;84.71
49315;BME280;36672;50.710;12.498;2023-03-03T03:49:15;98992.84;;;-0.83;84.36
49315;BME280;36672;50.710;12.498;2023-03-03T03:51:40;98989.38;;;-0.84;84.65
49315;BME280;36672;50.710;12.498;2023-03-03T03:54:06;98979.34;;;-0.80;85.11
49315;BME280;36672;50.710;12.498;2023-03-03T03:56:31;98987.41;;;-0.82;84.65
49315;BME280;36672;50.710;12.498;2023-03-03T03:58:56;98981.16;;;-0.80;84.53
49315;BME280;36672;50.710;12.498;2023-03-03T04:01:22;98995.63;;;-0.85;84.54
49315;BME280;36672;50.710;12.498;2023-03-03T04:03:47;98989.56;;;-0.87;84.75
49315;BME280;36672;50.710;12.498;2023-03-03T04:06:13;99000.19;;;-0.87;84.63
49315;BME280;36672;50.710;12.498;2023-03-03T04:08:38;99002.97;;;-0.88;84.65
49315;BME280;36672;50.710;12.498;2023-03-03T04:11:03;98996.78;;;-0.89;84.75
49315;BME280;36672;50.710;12.498;2023-03-03T04:13:28;98998.50;;;-0.88;85.05
49315;BME280;36672;50.710;12.498;2023-03-03T04:15:56;98992.34;;;-0.88;84.60
49315;BME280;36672;50.710;12.498;2023-03-03T04:18:21;98991.72;;;-0.92;84.67
49315;BME280;36672;50.710;12.498;2023-03-03T04:20:46;98988.94;;;-0.90;85.07
49315;BME280;36672;50.710;12.498;2023-03-03T04:23:11;98993.56;;;-0.92;84.54
49315;BME280;36672;50.710;12.498;2023-03-03T04:25:37;98995.22;;;-0.91;85.11
49315;BME280;36672;50.710;12.498;2023-03-03T04:28:02;98991.72;;;-0.92;84.42
49315;BME280;36672;50.710;12.498;2023-03-03T04:30:27;98993.44;;;-0.91;85.50
49315;BME280;36672;50.710;12.498;2023-03-03T04:32:52;98992.56;;;-0.91;85.09
49315;BME280;36672;50.710;12.498;2023-03-03T04:35:18;98994.50;;;-0.93;84.55
49315;BME280;36672;50.710;12.498;2023-03-03T04:37:43;98995.69;;;-0.97;84.77
49315;BME280;36672;50.710;12.498;2023-03-03T04:40:08;98993.88;;;-0.97;85.13
49315;BME280;36672;50.710;12.498;2023-03-03T04:42:34;98990.50;;;-0.99;85.14
49315;BME280;36672;50.710;12.498;2023-03-03T04:44:59;98992.31;;;-1.00;85.10
49315;BME280;36672;50.710;12.498;2023-03-03T04:47:24;99009.06;;;-0.99;85.50
49315;BME280;36672;50.710;12.498;2023-03-03T04:49:50;99009.19;;;-1.01;85.05
49315;BME280;36672;50.710;12.498;2023-03-03T04:52:15;99007.34;;;-1.00;85.71
49315;BME280;36672;50.710;12.498;2023-03-03T04:54:40;99014.34;;;-0.99;85.33
49315;BME280;36672;50.710;12.498;2023-03-03T04:57:05;99005.94;;;-0.93;85.33
49315;BME280;36672;50.710;12.498;2023-03-03T04:59:33;99006.44;;;-0.88;85.78
49315;BME280;36672;50.710;12.498;2023-03-03T05:01:59;99012.50;;;-0.86;85.07
49315;BME280;36672;50.710;12.498;2023-03-03T05:04:24;99012.25;;;-0.83;85.36
49315;BME280;36672;50.710;12.498;2023-03-03T05:06:49;99013.63;;;-0.77;85.39
49315;BME280;36672;50.710;12.498;2023-03-03T05:09:14;99022.19;;;-0.73;85.62
49315;BME280;36672;50.710;12.498;2023-03-03T05:11:39;99014.13;;;-0.72;85.96
49315;BME280;36672;50.710;12.498;2023-03-03T05:14:05;99018.47;;;-0.71;85.21
49315;BME280;36672;50.710;12.498;2023-03-03T05:16:32;99014.13;;;-0.72;85.12
49315;BME280;36672;50.710;12.498;2023-03-03T05:18:57;99018.56;;;-0.72;85.11
49315;BME280;36672;50.710;12.498;2023-03-03T05:21:22;99018.56;;;-0.72;85.21
49315;BME280;36672;50.710;12.498;2023-03-03T05:23:47;99020.25;;;-0.71;85.36
49315;BME280;36672;50.710;12.498;2023-03-03T05:26:12;99014.84;;;-0.70;85.26
49315;BME280;36672;50.710;12.498;2023-03-03T05:28:38;99021.94;;;-0.70;85.38
49315;BME280;36672;50.710;12.498;2023-03-03T05:31:03;99029.16;;;-0.72;85.00
49315;BME280;36672;50.710;12.498;2023-03-03T05:33:28;99038.81;;;-0.71;85.45
49315;BME280;36672;50.710;12.498;2023-03-03T05:35:54;99042.22;;;-0.69;85.40
49315;BME280;36672;50.710;12.498;2023-03-03T05:38:20;99044.03;;;-0.70;85.76
49315;BME280;36672;50.710;12.498;2023-03-03T05:40:45;99061.13;;;-0.74;85.71
49315;BME280;36672;50.710;12.498;2023-03-03T05:43:10;99056.91;;;-0.76;85.73
49315;BME280;36672;50.710;12.498;2023-03-03T05:45:36;99056.19;;;-0.78;85.44
49315;BME280;36672;50.710;12.498;2023-03-03T05:48:01;99056.28;;;-0.80;86.09
49315;BME280;36672;50.710;12.498;2023-03-03T05:50:28;99057.47;;;-0.84;86.25
49315;BME280;36672;50.710;12.498;2023-03-03T05:52:53;99051.44;;;-0.86;85.93
49315;BME280;36672;50.710;12.498;2023-03-03T05:55:18;99067.34;;;-0.86;86.06
49315;BME280;36672;50.710;12.498;2023-03-03T05:57:44;99063.66;;;-0.84;86.24
49315;BME280;36672;50.710;12.498;2023-03-03T06:00:09;99065.94;;;-0.79;86.45
49315;BME280;36672;50.710;12.498;2023-03-03T06:02:35;99056.91;;;-0.76;86.19
49315;BME280;36672;50.710;12.498;2023-03-03T06:05:00;99067.69;;;-0.91;86.01
49315;BME280;36672;50.710;12.498;2023-03-03T06:07:26;99059.25;;;-0.96;86.39
49315;BME280;36672;50.710;12.498;2023-03-03T06:09:51;99064.88;;;-1.01;85.92
49315;BME280;36672;50.710;12.498;2023-03-03T06:12:16;99064.03;;;-1.01;86.31
49315;BME280;36672;50.710;12.498;2023-03-03T06:14:42;99061.38;;;-1.01;86.69
49315;BME280;36672;50.710;12.498;2023-03-03T06:17:07;99074.41;;;-0.98;86.71
49315;BME280;36672;50.710;12.498;2023-03-03T06:19:32;99066.34;;;-0.96;86.84
49315;BME280;36672;50.710;12.498;2023-03-03T06:21:57;99065.38;;;-0.95;86.45
49315;BME280;36672;50.710;12.498;2023-03-03T06:24:23;99076.09;;;-0.97;86.73
49315;BME280;36672;50.710;12.498;2023-03-03T06:26:50;99084.19;;;-0.99;86.49
49315;BME280;36672;50.710;12.498;2023-03-03T06:29:16;99082.25;;;-0.96;87.05
49315;BME280;36672;50.710;12.498;2023-03-03T06:31:41;99072.38;;;-0.94;86.76
49315;BME280;36672;50.710;12.498;2023-03-03T06:34:07;99084.34;;;-0.89;86.80
49315;BME280;36672;50.710;12.498;2023-03-03T06:36:32;99087.97;;;-0.90;86.97
49315;BME280;36672;50.710;12.498;2023-03-03T06:38:57;99095.81;;;-0.88;86.60
49315;BME280;36672;50.710;12.498;2023-03-03T06:41:22;99090.25;;;-0.85;86.81
49315;BME280;36672;50.710;12.498;2023-03-03T06:43:48;99093.78;;;-0.85;86.72
49315;BME280;36672;50.710;12.498;2023-03-03T06:46:13;99091.00;;;-0.83;86.51
49315;BME280;36672;50.710;12.498;2023-03-03T06:48:38;99091.84;;;-0.83;86.87
49315;BME280;36672;50.710;12.498;2023-03-03T06:51:08;99090.88;;;-0.82;86.39
49315;BME280;36672;50.710;12.498;2023-03-03T06:53:39;99085.38;;;-0.78;87.04
49315;BME280;36672;50.710;12.498;2023-03-03T06:56:07;99079.31;;;-0.80;86.17
49315;BME280;36672;50.710;12.498;2023-03-03T06:58:33;99074.84;;;-0.80;85.99
49315;BME280;36672;50.710;12.498;2023-03-03T07:01:00;99071.88;;;-0.75;86.94
49315;BME280;36672;50.710;12.498;2023-03-03T07:03:26;99080.44;;;-0.72;86.57
49315;BME280;36672;50.710;12.498;2023-03-03T07:05:53;99066.09;;;-0.69;86.84
49315;BME280;36672;50.710;12.498;2023-03-03T07:08:20;99074.69;;;-0.66;86.68
49315;BME280;36672;50.710;12.498;2023-03-03T07:10:46;99075.53;;;-0.65;86.75
49315;BME280;36672;50.710;12.498;2023-03-03T07:13:16;99078.06;;;-0.63;86.79
49315;BME280;36672;50.710;12.498;2023-03-03T07:15:42;99096.75;;;-0.65;86.51
49315;BME280;36672;50.710;12.498;2023-03-03T07:18:16;99085.19;;;-0.64;86.24
49315;BME280;36672;50.710;12.498;2023-03-03T07:20:45;99087.84;;;-0.64;85.77
49315;BME280;36672;50.710;12.498;2023-03-03T07:23:22;99080.84;;;-0.65;85.99
49315;BME280;36672;50.710;12.498;2023-03-03T07:25:48;99083.03;;;-0.59;86.33
49315;BME280;36672;50.710;12.498;2023-03-03T07:28:23;99085.47;;;-0.56;86.23
49315;BME280;36672;50.710;12.498;2023-03-03T07:30:49;99086.94;;;-0.52;86.06
49315;BME280;36672;50.710;12.498;2023-03-03T07:33:27;99088.50;;;-0.49;86.52
49315;BME280;36672;50.710;12.498;2023-03-03T07:35:54;99084.66;;;-0.45;86.24
49315;BME280;36672;50.710;12.498;2023-03-03T07:38:24;99093.09;;;-0.40;86.04
49315;BME280;36672;50.710;12.498;2023-03-03T07:40:54;99102.91;;;-0.40;85.60
49315;BME280;36672;50.710;12.498;2023-03-03T07:43:28;99104.47;;;-0.38;86.41
49315;BME280;36672;50.710;12.498;2023-03-03T07:45:56;99113.66;;;-0.30;86.29
49315;BME280;36672;50.710;12.498;2023-03-03T07:48:24;99110.91;;;-0.29;86.06
49315;BME280;36672;50.710;12.498;2023-03-03T07:50:50;99110.66;;;-0.26;85.83
49315;BME280;36672;50.710;12.498;2023-03-03T07:55:49;99134.22;;;-0.21;85.22
49315;BME280;36672;50.710;12.498;2023-03-03T08:03:24;99150.16;;;-0.21;84.96
49315;BME280;36672;50.710;12.498;2023-03-03T08:05:49;99147.84;;;-0.26;84.45
49315;BME280;36672;50.710;12.498;2023-03-03T08:08:34;99145.75;;;-0.34;84.23
49315;BME280;36672;50.710;12.498;2023-03-03T08:11:01;99142.25;;;-0.34;84.87
49315;BME280;36672;50.710;12.498;2023-03-03T08:15:54;99138.66;;;-0.22;85.26
49315;BME280;36672;50.710;12.498;2023-03-03T08:18:24;99134.59;;;-0.14;85.07
49315;BME280;36672;50.710;12.498;2023-03-03T08:20:53;99124.09;;;-0.16;84.68
49315;BME280;36672;50.710;12.498;2023-03-03T08:23:19;99131.09;;;-0.15;84.52
49315;BME280;36672;50.710;12.498;2023-03-03T08:25:45;99138.31;;;-0.17;83.86
49315;BME280;36672;50.710;12.498;2023-03-03T08:28:10;99143.75;;;-0.19;84.07
49315;BME280;36672;50.710;12.498;2023-03-03T08:30:36;99144.84;;;-0.21;84.05
49315;BME280;36672;50.710;12.498;2023-03-03T08:33:02;99145.91;;;-0.24;83.86
49315;BME280;36672;50.710;12.498;2023-03-03T08:35:27;99143.38;;;-0.25;83.89
49315;BME280;36672;50.710;12.498;2023-03-03T08:37:53;99150.72;;;-0.29;83.71
49315;BME280;36672;50.710;12.498;2023-03-03T08:40:18;99145.19;;;-0.26;84.34
49315;BME280;36672;50.710;12.498;2023-03-03T08:42:43;99149.53;;;-0.25;83.80
49315;BME280;36672;50.710;12.498;2023-03-03T08:45:08;99152.44;;;-0.17;84.05
49315;BME280;36672;50.710;12.498;2023-03-03T08:47:33;99147.66;;;-0.11;84.53
49315;BME280;36672;50.710;12.498;2023-03-03T08:49:59;99148.16;;;-0.06;83.94
49315;BME280;36672;50.710;12.498;2023-03-03T08:52:24;99148.41;;;0.02;84.27
49315;BME280;36672;50.710;12.498;2023-03-03T08:54:50;99149.84;;;0.06;84.07
49315;BME280;36672;50.710;12.498;2023-03-03T08:57:15;99160.47;;;0.06;83.65
49315;BME280;36672;50.710;12.498;2023-03-03T08:59:41;99154.94;;;0.09;83.54
49315;BME280;36672;50.710;12.498;2023-03-03T09:02:06;99166.41;;;0.10;83.50
49315;BME280;36672;50.710;12.498;2023-03-03T09:04:32;99162.19;;;0.19;83.46
49315;BME280;36672;50.710;12.498;2023-03-03T09:06:57;99162.78;;;0.11;82.45
49315;BME280;36672;50.710;12.498;2023-03-03T09:09:22;99161.72;;;0.13;82.80
49315;BME280;36672;50.710;12.498;2023-03-03T09:11:47;99154.34;;;0.17;82.38
49315;BME280;36672;50.710;12.498;2023-03-03T09:14:14;99163.78;;;0.21;82.75
49315;BME280;36672;50.710;12.498;2023-03-03T09:16:43;99166.09;;;0.26;82.69
49315;BME280;36672;50.710;12.498;2023-03-03T09:19:24;99163.19;;;0.29;82.12
49315;BME280;36672;50.710;12.498;2023-03-03T09:21:50;99176.00;;;0.35;82.33
49315;BME280;36672;50.710;12.498;2023-03-03T09:24:25;99163.19;;;0.40;82.18
49315;BME280;36672;50.710;12.498;2023-03-03T09:26:51;99168.50;;;0.40;81.40
49315;BME280;36672;50.710;12.498;2023-03-03T09:34:15;99177.25;;;0.54;81.35
49315;BME280;36672;50.710;12.498;2023-03-03T09:36:43;99169.63;;;0.60;81.41
49315;BME280;36672;50.710;12.498;2023-03-03T09:39:18;99177.00;;;0.68;81.05
49315;BME280;36672;50.710;12.498;2023-03-03T09:46:47;99178.81;;;0.90;80.62
49315;BME280;36672;50.710;12.498;2023-03-03T09:52:16;99168.06;;;0.92;80.14
49315;BME280;36672;50.710;12.498;2023-03-03T09:57:32;99165.13;;;0.95;79.64
49315;BME280;36672;50.710;12.498;2023-03-03T10:00:15;99162.72;;;1.03;79.67
49315;BME280;36672;50.710;12.498;2023-03-03T10:02:56;99169.88;;;1.03;79.35
49315;BME280;36672;50.710;12.498;2023-03-03T10:13:11;99173.72;;;1.10;78.17
49315;BME280;36672;50.710;12.498;2023-03-03T10:15:46;99171.31;;;1.07;77.75
49315;BME280;36672;50.710;12.498;2023-03-03T10:20:44;99171.78;;;1.12;77.84
49315;BME280;36672;50.710;12.498;2023-03-03T10:26:17;99174.78;;;1.19;77.55
49315;BME280;36672;50.710;12.498;2023-03-03T10:31:15;99173.84;;;1.20;76.71
49315;BME280;36672;50.710;12.498;2023-03-03T10:36:19;99174.94;;;1.06;75.80
49315;BME280;36672;50.710;12.498;2023-03-03T10:46:13;99177.94;;;1.24;77.01
49315;BME280;36672;50.710;12.498;2023-03-03T10:49:04;99171.75;;;1.35;76.75
49315;BME280;36672;50.710;12.498;2023-03-03T11:05:13;99190.38;;;1.35;74.92
49315;BME280;36672;50.710;12.498;2023-03-03T11:07:46;99200.16;;;1.34;74.81
49315;BME280;36672;50.710;12.498;2023-03-03T11:17:41;99194.88;;;1.23;74.91
49315;BME280;36672;50.710;12.498;2023-03-03T11:20:20;99194.16;;;1.21;74.29
49315;BME280;36672;50.710;12.498;2023-03-03T11:23:05;99188.22;;;1.17;74.54
49315;BME280;36672;50.710;12.498;2023-03-03T11:25:39;99187.28;;;1.18;74.24
49315;BME280;36672;50.710;12.498;2023-03-03T11:33:31;99202.38;;;1.29;73.58
49315;BME280;36672;50.710;12.498;2023-03-03T11:44:02;99178.16;;;1.32;73.12
49315;BME280;36672;50.710;12.498;2023-03-03T11:51:40;99175.13;;;1.37;73.64
49315;BME280;36672;50.710;12.498;2023-03-03T11:56:48;99166.56;;;1.33;73.78
49315;BME280;36672;50.710;12.498;2023-03-03T12:01:45;99165.56;;;1.34;73.57
49315;BME280;36672;50.710;12.498;2023-03-03T12:04:14;99170.69;;;1.26;72.80
49315;BME280;36672;50.710;12.498;2023-03-03T12:11:53;99164.88;;;1.21;73.98
49315;BME280;36672;50.710;12.498;2023-03-03T12:16:59;99167.69;;;1.19;73.97
49315;BME280;36672;50.710;12.498;2023-03-03T12:25:40;99166.84;;;0.96;73.62
49315;BME280;36672;50.710;12.498;2023-03-03T12:28:10;99163.22;;;0.97;74.25
49315;BME280;36672;50.710;12.498;2023-03-03T12:41:31;99155.13;;;0.87;74.89
49315;BME280;36672;50.710;12.498;2023-03-03T12:46:34;99153.19;;;0.89;74.48
49315;BME280;36672;50.710;12.498;2023-03-03T12:49:04;99151.34;;;0.90;74.39
49315;BME280;36672;50.710;12.498;2023-03-03T12:54:11;99154.28;;;0.87;74.07
49315;BME280;36672;50.710;12.498;2023-03-03T12:56:39;99159.13;;;0.81;73.99
49315;BME280;36672;50.710;12.498;2023-03-03T13:04:10;99155.84;;;0.89;74.28
49315;BME280;36672;50.710;12.498;2023-03-03T13:06:45;99157.53;;;0.90;73.90
49315;BME280;36672;50.710;12.498;2023-03-03T13:17:08;99149.19;;;0.84;73.53
49315;BME280;36672;50.710;12.498;2023-03-03T13:19:40;99147.38;;;0.84;74.01
49315;BME280;36672;50.710;12.498;2023-03-03T13:27:19;99135.41;;;0.67;73.81
49315;BME280;36672;50.710;12.498;2023-03-03T13:30:00;99137.22;;;0.67;74.16
49315;BME280;36672;50.710;12.498;2023-03-03T13:32:36;99132.53;;;0.70;74.29
49315;BME280;36672;50.710;12.498;2023-03-03T13:37:54;99138.19;;;0.77;73.71
49315;BME280;36672;50.710;12.498;2023-03-03T13:42:52;99134.94;;;0.73;73.37
49315;BME280;36672;50.710;12.498;2023-03-03T13:45:24;99140.63;;;0.57;73.68
49315;BME280;36672;50.710;12.498;2023-03-03T13:50:24;99133.25;;;0.61;74.13
49315;BME280;36672;50.710;12.498;2023-03-03T13:55:37;99137.09;;;0.68;73.89
49315;BME280;36672;50.710;12.498;2023-03-03T14:00:38;99129.63;;;0.62;74.08
49315;BME280;36672;50.710;12.498;2023-03-03T14:11:09;99127.81;;;0.74;73.57
49315;BME280;36672;50.710;12.498;2023-03-03T14:16:04;99135.06;;;0.60;72.64
49315;BME280;36672;50.710;12.498;2023-03-03T14:18:35;99139.53;;;0.48;72.86
49315;BME280;36672;50.710;12.498;2023-03-03T14:21:13;99133.75;;;0.43;73.20
49315;BME280;36672;50.710;12.498;2023-03-03T14:26:08;99128.91;;;0.37;72.97
49315;BME280;36672;50.710;12.498;2023-03-03T14:28:44;99126.84;;;0.41;72.57
49315;BME280;36672;50.710;12.498;2023-03-03T14:31:23;99121.53;;;0.41;72.42
49315;BME280;36672;50.710;12.498;2023-03-03T14:33:59;99127.81;;;0.40;72.13
49315;BME280;36672;50.710;12.498;2023-03-03T14:36:30;99118.41;;;0.47;72.39
49315;BME280;36672;50.710;12.498;2023-03-03T14:38:56;99116.94;;;0.54;72.29
49315;BME280;36672;50.710;12.498;2023-03-03T14:41:22;99117.66;;;0.56;71.78
49315;BME280;36672;50.710;12.498;2023-03-03T14:44:01;99119.72;;;0.53;71.75
49315;BME280;36672;50.710;12.498;2023-03-03T14:46:44;99118.50;;;0.57;71.80
49315;BME280;36672;50.710;12.498;2023-03-03T14:49:13;99110.28;;;0.60;71.40
49315;BME280;36672;50.710;12.498;2023-03-03T14:59:22;99100.97;;;0.54;70.95
49315;BME280;36672;50.710;12.498;2023-03-03T15:02:02;99106.16;;;0.56;70.62
49315;BME280;36672;50.710;12.498;2023-03-03T15:04:32;99101.34;;;0.61;70.95
49315;BME280;36672;50.710;12.498;2023-03-03T15:06:57;99101.84;;;0.66;70.42
49315;BME280;36672;50.710;12.498;2023-03-03T15:11:52;99094.56;;;0.68;70.52
49315;BME280;36672;50.710;12.498;2023-03-03T15:14:19;99085.13;;;0.64;69.71
49315;BME280;36672;50.710;12.498;2023-03-03T15:16:44;99085.63;;;0.58;69.96
49315;BME280;36672;50.710;12.498;2023-03-03T15:19:31;99083.69;;;0.60;70.17
49315;BME280;36672;50.710;12.498;2023-03-03T15:22:03;99087.19;;;0.72;69.84
49315;BME280;36672;50.710;12.498;2023-03-03T15:24:38;99087.91;;;0.74;68.73
49315;BME280;36672;50.710;12.498;2023-03-03T15:27:28;99086.81;;;0.76;68.54
49315;BME280;36672;50.710;12.498;2023-03-03T15:37:51;99058.03;;;0.81;68.47
49315;BME280;36672;50.710;12.498;2023-03-03T15:48:24;99066.38;;;0.77;67.97
49315;BME280;36672;50.710;12.498;2023-03-03T15:59:08;99063.03;;;0.52;68.50
49315;BME280;36672;50.710;12.498;2023-03-03T16:01:40;99060.00;;;0.45;68.88
49315;BME280;36672;50.710;12.498;2023-03-03T16:04:13;99058.44;;;0.43;68.98
49315;BME280;36672;50.710;12.498;2023-03-03T16:07:44;99061.00;;;0.44;68.97
49315;BME280;36672;50.710;12.498;2023-03-03T16:17:26;99078.38;;;0.26;69.32
49315;BME280;36672;50.710;12.498;2023-03-03T16:20:06;99075.47;;;0.29;69.88
49315;BME280;36672;50.710;12.498;2023-03-03T16:22:47;99070.75;;;0.32;69.87
49315;BME280;36672;50.710;12.498;2023-03-03T16:25:30;99072.13;;;0.27;69.58
49315;BME280;36672;50.710;12.498;2023-03-03T16:28:17;99063.53;;;0.23;69.75
49315;BME280;36672;50.710;12.498;2023-03-03T16:35:54;99072.94;;;0.27;70.42
49315;BME280;36672;50.710;12.498;2023-03-03T16:38:37;99076.44;;;0.28;70.33
49315;BME280;36672;50.710;12.498;2023-03-03T16:41:05;99072.13;;;0.27;70.78
49315;BME280;36672;50.710;12.498;2023-03-03T16:48:44;99083.56;;;0.16;70.85
49315;BME280;36672;50.710;12.498;2023-03-03T16:51:20;99082.94;;;0.12;71.08
49315;BME280;36672;50.710;12.498;2023-03-03T17:01:27;99103.38;;;0.12;71.19
49315;BME280;36672;50.710;12.498;2023-03-03T17:06:29;99108.56;;;0.13;71.75